Time;durP1;ratioP1;P1;durP2;ratioP2;P2;SDS_P1;SDS_P2;PMS_P1;PMS_P2;Temp;Humidity;BMP_temperature;BMP_pressure;BME280_temperature;BME280_humidity;BME280_pressure;Samples;Min_cycle;Max_cycle;Signal;HPM_P1;HPM_P2
2022/10/14 00:01:12;;;;;;;1.85;1.17;;;;;;;13.32;74.88;100531.22;5087159;28;20180;-27
2022/10/14 00:03:38;;;;;;;2.25;0.95;;;;;;;13.00;75.47;100514.47;5086848;28;20028;-29
2022/10/14 00:06:15;;;;;;;2.67;1.02;;;;;;;13.35;74.94;100524.59;5086896;28;20805;-26
2022/10/14 00:08:42;;;;;;;3.55;1.17;;;;;;;13.04;74.52;100495.06;5086504;28;20071;-30
2022/10/14 00:11:13;;;;;;;4.25;2.00;;;;;;;12.82;75.06;100521.44;5086683;28;20040;-29
2022/10/14 00:13:39;;;;;;;3.45;1.48;;;;;;;12.36;75.77;100496.00;5086658;28;20099;-30
2022/10/14 00:16:05;;;;;;;4.35;1.70;;;;;;;12.61;75.53;100521.91;5086602;28;20458;-27
2022/10/14 00:18:31;;;;;;;2.65;1.40;;;;;;;12.76;74.92;100517.00;5086418;28;20028;-27
2022/10/14 00:20:59;;;;;;;4.85;1.80;;;;;;;12.77;74.44;100515.97;5086491;28;20036;-28
2022/10/14 00:23:25;;;;;;;4.10;2.00;;;;;;;12.72;74.57;100502.41;5067695;28;20692;-27
2022/10/14 00:25:51;;;;;;;6.53;2.15;;;;;;;12.92;73.81;100515.59;5086532;28;20468;-29
2022/10/14 00:28:17;;;;;;;4.97;2.15;;;;;;;12.58;74.87;100516.97;5086480;28;20440;-28
2022/10/14 00:30:52;;;;;;;4.45;2.10;;;;;;;12.69;74.50;100510.91;5067779;28;20491;-27
2022/10/14 00:33:17;;;;;;;5.97;2.45;;;;;;;12.46;74.79;100501.66;5068230;28;20024;-29
2022/10/14 00:35:43;;;;;;;4.53;2.08;;;;;;;12.59;74.66;100513.28;5086212;28;20396;-28
2022/10/14 00:38:08;;;;;;;7.75;2.40;;;;;;;12.44;74.78;100514.44;5086349;28;21034;-28
2022/10/14 00:40:33;;;;;;;5.68;2.30;;;;;;;12.41;74.33;100488.13;5086244;28;20081;-31
2022/10/14 00:42:59;;;;;;;5.00;2.45;;;;;;;12.60;74.22;100509.53;5086537;28;20073;-28
2022/10/14 00:45:24;;;;;;;4.10;2.30;;;;;;;12.52;74.08;100512.50;5086228;28;20088;-27
2022/10/14 00:47:52;;;;;;;8.05;2.65;;;;;;;12.00;76.23;100496.72;5086263;28;20028;-29
2022/10/14 00:50:19;;;;;;;7.50;2.80;;;;;;;12.25;75.80;100504.72;5086215;28;20067;-29
2022/10/14 00:52:45;;;;;;;6.72;2.60;;;;;;;12.09;75.85;100483.88;5085934;28;20036;-29
2022/10/14 00:55:16;;;;;;;4.95;2.47;;;;;;;12.45;74.69;100497.34;5086494;28;20055;-28
2022/10/14 00:57:42;;;;;;;6.38;2.60;;;;;;;12.44;74.71;100497.53;5086328;28;20184;-29
2022/10/14 01:00:11;;;;;;;4.45;2.08;;;;;;;12.37;74.80;100481.56;5086594;28;20025;-28
2022/10/14 01:02:37;;;;;;;6.78;2.72;;;;;;;12.65;73.95;100493.66;5067527;28;20040;-27
2022/10/14 01:05:05;;;;;;;6.40;2.35;;;;;;;12.50;74.82;100483.28;5085828;28;20035;-28
2022/10/14 01:07:39;;;;;;;6.70;2.40;;;;;;;12.61;74.23;100497.81;5067769;28;20032;-29
2022/10/14 01:10:35;;;;;;;6.80;2.53;;;;;;;12.75;73.06;100477.91;5086139;28;20515;-31
2022/10/14 01:13:32;;;;;;;4.57;2.70;;;;;;;12.83;73.06;100507.03;5086021;28;20036;-27
2022/10/14 01:16:19;;;;;;;5.03;2.35;;;;;;;12.85;72.90;100504.13;5086475;28;20043;-30
2022/10/14 01:19:40;;;;;;;4.63;2.40;;;;;;;12.93;72.69;100505.69;5084426;28;20036;-31
2022/10/14 01:22:23;;;;;;;6.28;2.58;;;;;;;13.00;72.28;100493.88;5046123;28;20040;-27
2022/10/14 01:25:16;;;;;;;7.07;2.45;;;;;;;12.75;73.40;100502.00;5085833;28;20192;-28
2022/10/14 01:27:55;;;;;;;7.30;2.70;;;;;;;12.87;73.03;100496.69;5085833;28;20020;-27
2022/10/14 01:30:31;;;;;;;8.15;2.90;;;;;;;12.60;73.65;100491.63;5089893;28;20016;-27
2022/10/14 01:33:08;;;;;;;4.88;2.28;;;;;;;12.86;72.80;100495.88;5089579;28;20040;-27
2022/10/14 01:36:11;;;;;;;9.23;2.60;;;;;;;12.93;71.90;100486.94;5089737;28;20036;-29
2022/10/14 01:38:49;;;;;;;8.05;2.65;;;;;;;12.65;72.79;100477.59;5087719;28;20056;-31
2022/10/14 01:41:24;;;;;;;5.65;2.78;;;;;;;12.34;73.69;100439.25;5089464;28;20035;-27
2022/10/14 01:43:53;;;;;;;6.07;2.85;;;;;;;12.50;73.69;100480.63;5089926;28;20038;-27
2022/10/14 01:46:22;;;;;;;6.43;2.60;;;;;;;12.60;72.79;100474.75;5089419;28;20521;-29
2022/10/14 01:48:53;;;;;;;6.28;2.22;;;;;;;12.64;72.17;100473.28;5070484;28;20051;-27
2022/10/14 01:51:28;;;;;;;7.85;2.60;;;;;;;12.76;72.03;100468.81;5071156;28;20511;-27
2022/10/14 01:54:10;;;;;;;6.05;2.20;;;;;;;12.80;71.38;100456.63;5070869;28;20032;-28
2022/10/14 01:56:37;;;;;;;4.75;2.45;;;;;;;12.58;72.19;100480.31;5070653;28;20457;-27
2022/10/14 01:59:04;;;;;;;5.43;2.50;;;;;;;12.61;71.97;100458.50;5089404;28;20032;-29
2022/10/14 02:01:29;;;;;;;8.02;2.50;;;;;;;12.79;71.78;100463.03;5087614;28;20024;-30
2022/10/14 02:03:55;;;;;;;5.05;2.30;;;;;;;12.61;72.00;100444.31;5089146;28;20035;-28
2022/10/14 02:06:36;;;;;;;6.80;2.42;;;;;;;12.49;72.29;100462.13;5094825;28;20034;-27
2022/10/14 02:09:07;;;;;;;6.82;2.53;;;;;;;12.60;72.05;100469.41;5109760;28;20032;-28
2022/10/14 02:11:57;;;;;;;4.78;2.38;;;;;;;12.55;71.77;100445.19;5109062;28;20038;-30
2022/10/14 02:14:43;;;;;;;4.25;2.00;;;;;;;12.32;72.65;100478.75;5076164;28;20046;-30
2022/10/14 02:17:28;;;;;;;4.57;2.25;;;;;;;11.97;73.16;100433.81;5107779;28;20036;-29
2022/10/14 02:20:12;;;;;;;4.28;2.33;;;;;;;12.23;72.63;100472.03;5090539;28;20057;-28
2022/10/14 02:22:56;;;;;;;3.63;2.08;;;;;;;12.19;72.24;100436.88;5109006;28;20031;-29
2022/10/14 02:25:28;;;;;;;5.90;2.35;;;;;;;12.37;71.97;100460.19;5109250;28;20027;-27
2022/10/14 02:27:53;;;;;;;6.38;2.80;;;;;;;12.30;72.04;100458.59;5108877;28;20027;-30
2022/10/14 02:30:20;;;;;;;7.75;2.33;;;;;;;12.21;72.75;100466.09;5090249;28;20388;-28
2022/10/14 02:32:46;;;;;;;4.40;2.55;;;;;;;12.09;73.42;100467.84;5089900;28;20034;-28
2022/10/14 02:35:16;;;;;;;4.63;2.10;;;;;;;11.95;73.62;100467.97;5108711;28;20046;-28
2022/10/14 02:37:44;;;;;;;4.55;2.40;;;;;;;11.77;73.95;100459.81;5108742;28;20105;-27
2022/10/14 02:40:19;;;;;;;5.22;2.25;;;;;;;11.66;74.22;100443.47;5107130;28;20059;-30
2022/10/14 02:42:45;;;;;;;4.47;2.08;;;;;;;11.51;74.07;100434.94;5108346;28;20027;-28
2022/10/14 02:45:12;;;;;;;4.50;2.15;;;;;;;11.62;73.83;100436.91;5108234;28;20027;-30
2022/10/14 02:47:37;;;;;;;4.18;2.40;;;;;;;11.74;74.09;100461.09;5108690;28;20495;-28
2022/10/14 02:50:03;;;;;;;7.88;3.20;;;;;;;11.45;75.03;100443.81;5108830;28;20043;-27
2022/10/14 02:52:29;;;;;;;8.18;2.70;;;;;;;11.55;74.88;100440.69;5108582;28;21300;-27
2022/10/14 02:54:54;;;;;;;5.43;3.15;;;;;;;11.59;74.60;100466.75;5108155;28;20027;-27
2022/10/14 02:57:19;;;;;;;5.70;2.83;;;;;;;11.47;75.47;100460.44;5108735;28;20034;-29
2022/10/14 02:59:45;;;;;;;5.53;2.60;;;;;;;11.30;75.94;100436.13;5108072;28;20569;-27
2022/10/14 03:02:10;;;;;;;6.18;3.20;;;;;;;11.29;76.43;100441.66;5108435;28;20039;-29
2022/10/14 03:04:36;;;;;;;4.90;2.85;;;;;;;11.15;76.33;100431.03;5107821;28;20028;-27
2022/10/14 03:07:01;;;;;;;7.45;2.83;;;;;;;11.25;76.46;100452.75;5089799;28;20438;-27
2022/10/14 03:09:27;;;;;;;7.03;2.95;;;;;;;11.21;77.03;100446.22;5107987;28;20028;-29
2022/10/14 03:11:52;;;;;;;5.95;2.92;;;;;;;11.35;76.75;100451.50;5106443;28;20108;-29
2022/10/14 03:14:17;;;;;;;6.20;3.05;;;;;;;11.71;75.88;100455.34;5089646;28;20020;-28
2022/10/14 03:16:43;;;;;;;5.28;2.67;;;;;;;11.50;76.38;100452.00;5107878;28;20043;-31
2022/10/14 03:19:08;;;;;;;7.55;3.00;;;;;;;11.59;76.05;100453.38;5089633;28;20028;-28
2022/10/14 03:21:34;;;;;;;7.32;3.35;;;;;;;11.54;76.05;100455.06;5107837;28;20574;-30
2022/10/14 03:24:00;;;;;;;6.22;2.80;;;;;;;11.60;76.11;100448.84;5107805;28;20468;-28
2022/10/14 03:26:26;;;;;;;5.22;2.65;;;;;;;11.42;76.95;100458.44;5107835;28;20562;-27
2022/10/14 03:28:52;;;;;;;4.80;2.67;;;;;;;11.37;76.91;100446.75;5107345;28;20110;-28
2022/10/14 03:31:17;;;;;;;8.93;2.85;;;;;;;11.54;76.66;100445.19;5089318;28;20114;-29
2022/10/14 03:33:42;;;;;;;5.28;2.83;;;;;;;11.67;75.63;100452.31;5107745;28;20057;-27
2022/10/14 03:36:08;;;;;;;4.72;2.60;;;;;;;11.65;75.66;100441.84;5089298;28;20579;-30
2022/10/14 03:38:33;;;;;;;6.65;2.70;;;;;;;11.30;77.24;100453.97;5107102;28;20051;-34
2022/10/14 03:40:59;;;;;;;5.68;2.83;;;;;;;11.20;78.21;100449.94;5107382;28;20032;-28
2022/10/14 03:43:24;;;;;;;8.02;3.20;;;;;;;11.45;77.44;100443.81;5107460;28;20035;-30
2022/10/14 03:45:50;;;;;;;9.18;2.75;;;;;;;11.55;76.53;100441.50;5103485;28;20016;-29
2022/10/14 03:48:15;;;;;;;4.40;2.50;;;;;;;10.92;79.36;100441.44;5087226;28;20111;-29
2022/10/14 03:50:41;;;;;;;8.38;2.95;;;;;;;10.90;78.89;100435.50;5086243;28;20051;-27
2022/10/14 03:53:06;;;;;;;6.65;2.80;;;;;;;10.62;79.82;100420.59;5087008;28;20036;-27
2022/10/14 03:55:31;;;;;;;8.90;3.00;;;;;;;11.21;77.78;100442.72;5086934;28;20038;-28
2022/10/14 03:57:57;;;;;;;7.13;3.08;;;;;;;11.08;77.85;100430.28;5068452;28;20032;-30
2022/10/14 04:00:22;;;;;;;8.13;2.63;;;;;;;10.93;78.43;100429.72;5086869;28;20495;-30
2022/10/14 04:02:48;;;;;;;6.55;2.95;;;;;;;11.13;77.86;100427.78;5086721;28;20032;-27
2022/10/14 04:05:13;;;;;;;9.15;3.28;;;;;;;10.66;79.13;100419.16;5086717;28;20020;-28
2022/10/14 04:07:39;;;;;;;6.50;2.78;;;;;;;10.90;78.02;100430.97;5086649;28;20026;-27
2022/10/14 04:10:05;;;;;;;8.43;2.83;;;;;;;10.74;78.52;100434.13;5086805;28;20031;-28
2022/10/14 04:12:31;;;;;;;10.02;2.95;;;;;;;10.93;77.67;100433.22;5068219;28;20031;-28
2022/10/14 04:14:57;;;;;;;11.60;3.42;;;;;;;11.10;76.32;100432.75;5086558;28;20537;-27
2022/10/14 04:17:23;;;;;;;11.38;3.13;;;;;;;11.20;75.83;100430.44;5086632;28;20059;-28
2022/10/14 04:19:49;;;;;;;8.77;3.33;;;;;;;11.39;74.85;100420.66;5068297;28;20036;-28
2022/10/14 04:22:14;;;;;;;10.48;3.33;;;;;;;11.17;75.47;100425.50;5051859;28;20027;-28
2022/10/14 04:24:40;;;;;;;8.25;3.17;;;;;;;11.05;75.47;100428.03;5086148;28;20032;-29
2022/10/14 04:27:06;;;;;;;8.57;2.83;;;;;;;10.84;75.61;100411.28;5086281;28;20404;-29
2022/10/14 04:29:31;;;;;;;10.10;3.30;;;;;;;10.82;76.26;100421.34;5068311;28;20031;-26
2022/10/14 04:31:57;;;;;;;9.73;3.03;;;;;;;11.00;75.84;100427.84;5086676;28;20826;-28
2022/10/14 04:34:22;;;;;;;9.45;2.97;;;;;;;10.72;77.04;100420.97;5068003;28;20028;-30
2022/10/14 04:36:47;;;;;;;9.43;3.10;;;;;;;10.73;77.05;100406.63;5085947;28;20044;-29
2022/10/14 04:39:14;;;;;;;7.85;3.22;;;;;;;10.89;76.60;100423.16;5067931;28;20123;-30
2022/10/14 04:41:39;;;;;;;6.80;3.50;;;;;;;10.85;77.19;100418.28;5086172;28;20077;-28
2022/10/14 04:44:05;;;;;;;10.43;2.80;;;;;;;10.87;76.91;100420.72;5086336;28;20032;-30
2022/10/14 04:46:30;;;;;;;8.82;3.72;;;;;;;10.87;77.06;100423.41;5067904;28;20028;-27
2022/10/14 04:48:56;;;;;;;8.25;2.70;;;;;;;10.72;78.34;100431.66;5067798;28;20035;-32
2022/10/14 04:51:21;;;;;;;10.27;3.30;;;;;;;10.47;79.48;100412.88;5086157;28;20543;-27
2022/10/14 04:53:47;;;;;;;9.20;3.10;;;;;;;10.40;80.64;100410.22;5086239;28;20024;-29
2022/10/14 04:56:12;;;;;;;6.55;2.75;;;;;;;10.61;81.07;100434.97;5086206;28;20038;-31
2022/10/14 04:58:38;;;;;;;6.07;2.42;;;;;;;10.68;81.23;100430.44;5086220;28;20028;-27
2022/10/14 05:01:03;;;;;;;6.28;2.58;;;;;;;10.71;81.61;100445.22;5086165;28;20032;-33
2022/10/14 05:03:28;;;;;;;6.55;3.08;;;;;;;10.93;81.23;100443.06;5087442;28;20039;-28
2022/10/14 05:05:54;;;;;;;8.10;2.88;;;;;;;10.97;79.85;100422.94;5090084;28;20085;-29
2022/10/14 05:08:19;;;;;;;6.70;3.53;;;;;;;11.05;80.13;100420.84;5071667;28;20024;-27
2022/10/14 05:10:47;;;;;;;7.75;3.60;;;;;;;11.35;79.99;100435.47;5089609;28;20024;-27
2022/10/14 05:13:12;;;;;;;14.10;4.32;;;;;;;11.47;79.02;100417.72;5089976;28;20511;-29
2022/10/14 05:15:38;;;;;;;8.45;4.10;;;;;;;11.49;79.26;100410.31;5090126;28;20043;-27
2022/10/14 05:18:03;;;;;;;8.90;4.60;;;;;;;11.66;79.19;100431.97;5090231;28;20032;-28
2022/10/14 05:20:29;;;;;;;10.43;5.15;;;;;;;11.62;78.78;100422.75;5088443;28;20040;-30
2022/10/14 05:22:54;;;;;;;10.27;5.07;;;;;;;11.77;78.34;100425.09;5089591;28;20032;-28
2022/10/14 05:25:20;;;;;;;13.05;7.22;;;;;;;11.68;79.21;100434.44;5089610;28;20136;-31
2022/10/14 05:27:45;;;;;;;15.05;9.30;;;;;;;11.55;79.77;100425.47;5089896;28;20028;-28
2022/10/14 05:30:11;;;;;;;11.73;6.53;;;;;;;11.45;80.01;100420.59;5089399;28;20103;-30
2022/10/14 05:32:38;;;;;;;16.13;9.18;;;;;;;11.57;80.70;100439.44;5089380;28;20028;-27
2022/10/14 05:35:04;;;;;;;9.82;5.88;;;;;;;11.73;80.92;100431.91;5087931;28;20127;-27
2022/10/14 05:37:29;;;;;;;5.28;3.20;;;;;;;11.70;80.56;100438.50;5089592;28;20610;-32
2022/10/14 05:39:54;;;;;;;8.10;3.72;;;;;;;11.97;79.42;100441.84;5071059;28;20024;-29
2022/10/14 05:42:20;;;;;;;8.68;3.58;;;;;;;11.92;78.90;100430.16;5071051;28;20093;-28
2022/10/14 05:44:45;;;;;;;8.90;3.55;;;;;;;11.96;78.29;100434.84;5089371;28;20028;-28
2022/10/14 05:47:11;;;;;;;7.85;3.65;;;;;;;12.00;78.23;100428.03;5089308;28;20032;-28
2022/10/14 05:49:37;;;;;;;10.57;3.92;;;;;;;12.29;76.54;100431.03;5089444;28;20060;-28
2022/10/14 05:52:02;;;;;;;8.50;4.20;;;;;;;12.48;76.89;100455.13;5089156;28;20400;-27
2022/10/14 05:54:28;;;;;;;14.43;6.93;;;;;;;12.45;76.36;100419.75;5089200;28;20035;-29
2022/10/14 05:56:53;;;;;;;12.27;7.15;;;;;;;12.60;76.51;100427.41;5088672;28;20114;-27
2022/10/14 05:59:19;;;;;;;9.88;5.60;;;;;;;12.71;76.45;100438.41;5089267;28;20110;-29
2022/10/14 06:01:45;;;;;;;6.65;4.75;;;;;;;12.88;76.15;100444.00;5089197;28;20512;-28
2022/10/14 06:04:18;;;;;;;15.75;5.20;;;;;;;12.85;76.44;100435.38;5070753;28;20049;-29
2022/10/14 06:06:44;;;;;;;10.45;5.03;;;;;;;12.74;77.07;100432.63;5070274;28;20032;-30
2022/10/14 06:09:10;;;;;;;11.18;7.70;;;;;;;13.09;76.37;100443.50;5088768;28;20570;-28
2022/10/14 06:11:36;;;;;;;8.32;4.38;;;;;;;13.06;76.80;100452.81;5089086;28;20115;-28
2022/10/14 06:14:02;;;;;;;10.15;4.28;;;;;;;13.10;76.93;100453.19;5088650;28;20095;-27
2022/10/14 06:16:27;;;;;;;6.28;3.80;;;;;;;13.12;76.24;100451.09;5088827;28;20118;-28
2022/10/14 06:18:53;;;;;;;10.43;4.22;;;;;;;13.17;75.68;100427.13;5088069;28;20998;-31
2022/10/14 06:21:19;;;;;;;11.95;3.95;;;;;;;13.26;75.25;100428.44;5088847;28;20028;-27
2022/10/14 06:23:45;;;;;;;8.00;4.15;;;;;;;13.58;74.19;100440.78;5070020;28;20024;-29
2022/10/14 06:26:11;;;;;;;9.95;3.80;;;;;;;13.89;72.40;100436.19;5088649;28;20036;-27
2022/10/14 06:28:37;;;;;;;7.13;3.90;;;;;;;14.00;72.86;100454.97;5070001;28;20552;-30
2022/10/14 06:31:03;;;;;;;7.43;3.42;;;;;;;14.21;72.88;100450.88;5088635;28;20081;-28
2022/10/14 06:33:29;;;;;;;10.65;3.40;;;;;;;14.36;71.47;100453.09;5070407;28;20059;-31
2022/10/14 06:35:56;;;;;;;6.60;2.97;;;;;;;14.18;72.01;100442.47;5088284;28;20064;-28
2022/10/14 06:38:22;;;;;;;23.65;4.75;;;;;;;14.39;71.77;100439.22;5088307;28;20137;-29
2022/10/14 06:40:52;;;;;;;7.70;2.78;;;;;;;14.52;70.99;100453.44;5088342;28;20127;-27
2022/10/14 06:43:19;;;;;;;6.43;2.47;;;;;;;14.59;70.09;100449.63;5088550;28;20027;-27
2022/10/14 06:45:45;;;;;;;5.55;2.80;;;;;;;14.59;70.40;100440.75;5088478;28;20028;-27
2022/10/14 06:48:11;;;;;;;6.03;2.40;;;;;;;14.71;70.20;100443.41;5088329;28;20047;-28
2022/10/14 06:50:37;;;;;;;6.82;2.60;;;;;;;15.00;68.54;100447.78;5087656;28;20050;-27
2022/10/14 06:53:03;;;;;;;6.55;2.20;;;;;;;15.01;69.22;100437.84;5088120;28;20031;-27
2022/10/14 06:55:29;;;;;;;4.72;2.40;;;;;;;15.19;67.93;100451.06;5087905;28;20108;-31
2022/10/14 06:57:55;;;;;;;4.72;2.08;;;;;;;15.37;67.46;100444.69;5069712;28;20089;-31
2022/10/14 07:00:21;;;;;;;4.47;2.20;;;;;;;15.22;68.29;100420.22;5088076;28;20024;-30
2022/10/14 07:02:47;;;;;;;5.60;2.65;;;;;;;15.42;67.49;100452.03;5087664;28;20032;-30
2022/10/14 07:05:12;;;;;;;6.53;2.70;;;;;;;15.39;67.31;100441.78;5087947;28;20030;-29
2022/10/14 07:07:38;;;;;;;5.90;2.30;;;;;;;15.45;66.98;100430.88;5087508;28;20036;-30
2022/10/14 07:10:05;;;;;;;8.60;2.55;;;;;;;15.56;67.59;100447.97;5088010;28;20115;-28
2022/10/14 07:12:31;;;;;;;8.95;2.67;;;;;;;15.67;66.82;100455.19;5086419;28;20032;-28
2022/10/14 07:14:57;;;;;;;7.65;2.85;;;;;;;15.56;67.23;100456.03;5087829;28;20024;-27
2022/10/14 07:17:23;;;;;;;8.30;3.05;;;;;;;15.83;66.93;100458.13;5087641;28;20036;-28
2022/10/14 07:19:49;;;;;;;8.57;2.70;;;;;;;15.98;66.42;100461.09;5087461;28;20081;-28
2022/10/14 07:22:16;;;;;;;9.80;2.33;;;;;;;16.12;66.43;100434.66;5087404;28;20526;-28
2022/10/14 07:24:43;;;;;;;7.32;2.33;;;;;;;16.18;64.53;100446.31;5087057;28;20407;-29
2022/10/14 07:27:10;;;;;;;6.13;1.90;;;;;;;16.27;64.91;100444.84;5086904;28;20024;-27
2022/10/14 07:29:36;;;;;;;5.30;1.80;;;;;;;16.45;64.11;100455.31;5087457;28;20088;-30
2022/10/14 07:32:02;;;;;;;4.60;1.77;;;;;;;16.85;64.37;100442.66;5069363;28;20396;-28
2022/10/14 07:34:28;;;;;;;7.78;1.88;;;;;;;16.93;62.09;100433.31;5087226;28;20035;-27
2022/10/14 07:36:54;;;;;;;5.88;1.60;;;;;;;16.78;62.59;100437.44;5086752;28;20794;-29
2022/10/14 07:39:20;;;;;;;5.15;1.80;;;;;;;16.92;62.71;100428.97;5087066;28;20020;-28
2022/10/14 07:41:47;;;;;;;6.10;1.77;;;;;;;17.37;60.58;100436.75;5085812;28;20028;-28
2022/10/14 07:44:14;;;;;;;10.57;2.67;;;;;;;17.58;60.12;100440.44;5068799;28;20063;-28
2022/10/14 07:46:43;;;;;;;8.55;2.38;;;;;;;17.65;61.47;100440.22;5085275;28;20495;-30
2022/10/14 07:49:20;;;;;;;10.15;2.20;;;;;;;17.76;59.93;100441.97;5086787;28;20034;-28
2022/10/14 07:51:47;;;;;;;4.75;1.85;;;;;;;17.88;60.21;100414.84;5085502;28;20573;-30
2022/10/14 07:54:22;;;;;;;5.22;1.80;;;;;;;17.73;59.45;100423.56;5086999;28;20028;-30
2022/10/14 07:56:48;;;;;;;3.63;1.40;;;;;;;17.62;60.33;100422.69;5087175;28;20032;-28
2022/10/14 07:59:16;;;;;;;3.38;1.50;;;;;;;17.89;58.27;100427.25;5087767;28;20499;-29
2022/10/14 08:01:42;;;;;;;4.27;1.50;;;;;;;17.93;58.24;100414.06;5087515;28;20032;-30
2022/10/14 08:04:10;;;;;;;5.90;1.50;;;;;;;18.00;57.20;100404.66;5087715;28;20071;-29
2022/10/14 08:06:36;;;;;;;3.70;1.30;;;;;;;18.16;58.35;100431.75;5087416;28;20024;-29
2022/10/14 08:09:08;;;;;;;5.00;1.60;;;;;;;18.16;57.08;100413.66;5087764;28;20380;-30
2022/10/14 08:11:34;;;;;;;7.53;1.73;;;;;;;17.94;58.61;100421.91;5086757;28;20028;-27
2022/10/14 08:14:01;;;;;;;6.38;1.95;;;;;;;17.76;58.28;100401.50;5087529;28;20099;-30
2022/10/14 08:16:33;;;;;;;4.00;1.30;;;;;;;17.88;58.09;100412.13;5068933;28;20039;-27
2022/10/14 08:19:03;;;;;;;5.03;1.52;;;;;;;18.21;56.76;100421.00;5087413;28;20058;-28
2022/10/14 08:21:29;;;;;;;1.92;1.10;;;;;;;18.26;57.36;100429.91;5087492;28;20032;-30
2022/10/14 08:23:55;;;;;;;4.45;1.15;;;;;;;18.25;57.52;100435.59;5087740;28;20074;-28
2022/10/14 08:26:30;;;;;;;4.38;1.30;;;;;;;18.69;55.76;100424.44;5087566;28;20753;-27
2022/10/14 08:28:58;;;;;;;10.68;2.03;;;;;;;18.47;56.83;100403.03;5085719;28;20028;-28
2022/10/14 08:31:24;;;;;;;4.97;1.23;;;;;;;18.67;55.63;100423.91;5087595;28;20032;-30
2022/10/14 08:33:50;;;;;;;5.70;1.50;;;;;;;18.94;55.72;100428.34;5087626;28;20032;-27
2022/10/14 08:36:18;;;;;;;3.20;1.40;;;;;;;19.05;54.78;100419.22;5087423;28;20684;-28
2022/10/14 08:38:44;;;;;;;2.97;1.38;;;;;;;19.10;54.09;100408.41;5072050;28;20533;-29
2022/10/14 08:41:13;;;;;;;5.18;1.13;;;;;;;19.19;53.93;100417.63;5091779;28;20024;-27
2022/10/14 08:43:49;;;;;;;2.70;1.20;;;;;;;19.06;54.22;100420.81;5091427;28;20032;-27
2022/10/14 08:46:35;;;;;;;3.05;1.20;;;;;;;19.30;53.85;100413.03;5091560;28;20462;-29
2022/10/14 08:49:30;;;;;;;7.03;1.30;;;;;;;19.58;51.72;100422.53;5091433;28;20112;-28
2022/10/14 08:52:20;;;;;;;4.38;1.10;;;;;;;19.43;53.76;100411.69;5068392;28;20032;-29
2022/10/14 08:54:54;;;;;;;1.65;0.90;;;;;;;19.65;53.25;100412.22;5091225;28;20124;-30
2022/10/14 08:57:25;;;;;;;3.75;1.20;;;;;;;19.64;51.83;100399.81;5091412;28;20032;-28
2022/10/14 08:59:52;;;;;;;20.40;2.13;;;;;;;19.86;52.20;100396.03;5056464;28;20035;-28
2022/10/14 09:02:36;;;;;;;3.97;1.20;;;;;;;19.81;51.65;100413.06;5091017;28;20050;-27
2022/10/14 09:05:03;;;;;;;1.65;1.00;;;;;;;19.50;51.37;100392.50;5091207;28;20028;-27
2022/10/14 09:07:33;;;;;;;5.85;1.40;;;;;;;19.68;52.52;100403.59;5072690;28;20032;-31
2022/10/14 09:10:10;;;;;;;5.38;1.33;;;;;;;19.79;52.00;100404.41;5072866;28;20039;-32
2022/10/14 09:12:39;;;;;;;3.35;1.10;;;;;;;19.60;52.18;100390.59;5090698;28;20483;-30
2022/10/14 09:15:21;;;;;;;4.38;1.08;;;;;;;19.32;52.54;100396.53;5091242;28;20032;-28
2022/10/14 09:18:30;;;;;;;3.63;1.15;;;;;;;19.56;51.98;100403.06;5072766;28;20024;-31
2022/10/14 09:20:57;;;;;;;6.95;1.10;;;;;;;19.71;51.37;100404.16;5088884;28;20119;-27
2022/10/14 09:23:26;;;;;;;2.83;0.90;;;;;;;19.76;50.51;100401.47;5090815;28;20035;-28
2022/10/14 09:25:55;;;;;;;2.08;0.80;;;;;;;20.19;48.96;100410.06;5090962;28;20115;-28
2022/10/14 09:28:31;;;;;;;7.45;1.73;;;;;;;20.10;49.15;100408.97;5090837;28;20034;-29
2022/10/14 09:30:57;;;;;;;6.97;1.08;;;;;;;20.04;47.68;100376.53;5089240;28;20028;-29
2022/10/14 09:33:27;;;;;;;3.42;0.90;;;;;;;19.81;46.60;100385.22;5090390;28;20024;-31
2022/10/14 09:35:56;;;;;;;2.38;0.98;;;;;;;19.51;49.66;100394.91;5111021;27;20042;-33
2022/10/14 09:38:25;;;;;;;2.40;0.93;;;;;;;19.63;48.59;100403.56;5092008;28;20040;-30
2022/10/14 09:40:58;;;;;;;2.95;1.05;;;;;;;19.85;48.68;100399.81;5110294;28;20031;-29
2022/10/14 09:43:25;;;;;;;2.05;1.00;;;;;;;20.19;47.12;100391.91;5092181;28;20419;-28
2022/10/14 09:46:01;;;;;;;2.13;0.80;;;;;;;20.44;45.38;100395.63;5110213;28;20040;-29
2022/10/14 09:48:32;;;;;;;1.00;0.60;;;;;;;20.44;41.96;100372.03;5110500;28;20050;-30
2022/10/14 09:51:02;;;;;;;4.25;0.90;;;;;;;20.42;41.98;100366.09;5110241;28;20020;-29
2022/10/14 09:53:45;;;;;;;1.70;1.02;;;;;;;20.86;42.86;100386.22;5110683;28;20024;-31
2022/10/14 09:56:12;;;;;;;1.33;0.75;;;;;;;21.25;42.07;100361.88;5110259;28;20489;-30
2022/10/14 09:58:54;;;;;;;4.68;1.15;;;;;;;21.33;40.88;100373.19;5110376;28;20034;-27
2022/10/14 10:01:26;;;;;;;2.47;0.90;;;;;;;21.49;40.16;100376.63;5110353;28;20039;-28
2022/10/14 10:03:54;;;;;;;2.85;1.20;;;;;;;21.08;39.62;100366.84;5110387;28;20030;-28
2022/10/14 10:06:22;;;;;;;;;;;;;;;21.24;41.84;100378.41;5110646;28;20096;-27
2022/10/14 10:08:54;;;;;;;;;;;;;;;21.30;39.56;100379.19;5091323;28;20406;-29
2022/10/14 10:11:41;;;;;;;1.42;0.70;;;;;;;21.36;39.64;100356.34;5110301;28;19955;-28
2022/10/14 10:14:28;;;;;;;4.88;2.35;;;;;;;21.32;38.78;100355.31;5109697;28;20063;-28
2022/10/14 10:17:09;;;;;;;3.13;1.10;;;;;;;21.23;39.45;100372.19;5110021;28;20031;-28
2022/10/14 10:19:50;;;;;;;5.38;1.13;;;;;;;21.46;39.08;100367.16;5110061;28;20052;-27
2022/10/14 10:22:19;;;;;;;4.88;1.30;;;;;;;21.36;38.00;100367.22;5110091;28;20436;-29
2022/10/14 10:24:46;;;;;;;3.50;1.00;;;;;;;20.96;38.59;100347.41;5109634;28;20138;-30
2022/10/14 10:27:35;;;;;;;2.58;1.10;;;;;;;20.76;38.02;100341.03;5108488;28;20415;-30
2022/10/14 10:30:42;;;;;;;2.90;1.30;;;;;;;20.74;38.13;100356.78;5108675;28;20093;-27
2022/10/14 10:33:26;;;;;;;5.15;2.03;;;;;;;20.67;39.11;100319.13;5109895;28;20023;-28
2022/10/14 10:36:39;;;;;;;2.95;1.45;;;;;;;20.94;40.27;100336.84;5109739;28;20103;-28
2022/10/14 10:39:37;;;;;;;4.65;1.95;;;;;;;20.87;40.54;100334.47;5085497;28;20040;-33
2022/10/14 10:42:16;;;;;;;3.55;1.75;;;;;;;20.56;40.96;100316.75;5108617;28;20023;-27
2022/10/14 10:45:08;;;;;;;4.82;1.60;;;;;;;20.21;42.27;100330.16;5108370;28;20116;-29
2022/10/14 10:48:00;;;;;;;7.18;1.50;;;;;;;20.26;41.46;100316.59;5108478;28;20108;-28
2022/10/14 10:50:28;;;;;;;4.55;1.50;;;;;;;20.16;41.75;100323.94;5108249;28;20032;-29
2022/10/14 10:53:02;;;;;;;3.72;1.45;;;;;;;19.94;43.00;100317.00;5107949;28;20024;-28
2022/10/14 10:55:53;;;;;;;2.50;1.20;;;;;;;19.96;42.08;100320.25;5108658;28;20039;-29
2022/10/14 10:58:34;;;;;;;3.95;1.70;;;;;;;20.24;42.45;100317.97;5108321;28;20027;-28
2022/10/14 11:01:05;;;;;;;5.57;1.60;;;;;;;20.22;42.37;100309.31;5105478;28;20024;-28
2022/10/14 11:03:43;;;;;;;2.58;1.35;;;;;;;20.63;40.57;100317.25;5108231;28;20028;-28
2022/10/14 11:06:08;;;;;;;4.50;1.33;;;;;;;20.82;39.76;100310.09;5108360;28;20035;-29
2022/10/14 11:12:09;;;;;;;3.28;1.30;;;;;;;21.13;40.88;100307.19;5108021;28;20046;-28
2022/10/14 11:14:56;;;;;;;3.33;1.27;;;;;;;21.19;39.55;100297.91;5106338;28;20106;-28
2022/10/14 11:17:56;;;;;;;2.90;1.42;;;;;;;21.35;38.64;100298.59;5107993;28;20031;-28
2022/10/14 11:20:29;;;;;;;4.22;1.85;;;;;;;21.33;41.51;100281.78;5016945;28;20041;-28
2022/10/14 11:23:07;;;;;;;3.90;1.65;;;;;;;21.24;41.41;100265.31;5107863;28;20059;-28
2022/10/14 11:25:54;;;;;;;4.65;2.13;;;;;;;21.34;40.10;100277.97;5107652;28;20028;-29
2022/10/14 11:28:51;;;;;;;5.35;1.50;;;;;;;21.28;39.30;100279.91;5106246;28;20038;-28
2022/10/14 11:31:39;;;;;;;3.13;1.23;;;;;;;21.02;40.13;100257.66;5068077;28;20498;-30
2022/10/14 11:34:29;;;;;;;3.10;1.42;;;;;;;21.35;40.42;100262.50;5107530;28;20039;-29
2022/10/14 11:37:33;;;;;;;10.80;3.60;;;;;;;21.71;39.64;100264.88;5107239;28;20034;-29
2022/10/14 11:40:20;;;;;;;7.93;3.17;;;;;;;21.60;38.45;100259.56;5074995;28;20554;-29
2022/10/14 11:42:54;;;;;;;7.63;2.30;;;;;;;21.55;38.72;100256.09;5105539;28;20039;-29
2022/10/14 11:45:38;;;;;;;9.63;2.80;;;;;;;21.77;38.93;100250.97;5107118;28;20602;-27